Time;durP1;ratioP1;P1;durP2;ratioP2;P2;SDS_P1;SDS_P2;PMS_P1;PMS_P2;Temp;Humidity;BMP_temperature;BMP_pressure;BME280_temperature;BME280_humidity;BME280_pressure;Samples;Min_cycle;Max_cycle;Signal;HPM_P1;HPM_P2
2022/03/26 00:00:49;;;;;;;16.15;9.23;;;2.90;99.90;;;;;;5056075;28;20046;-36
2022/03/26 00:03:16;;;;;;;17.65;9.18;;;2.90;99.90;;;;;;5061226;28;20069;-34
2022/03/26 00:05:43;;;;;;;14.85;8.98;;;3.00;99.90;;;;;;5055871;28;20448;-34
2022/03/26 00:08:11;;;;;;;16.73;9.02;;;3.00;99.90;;;;;;5060276;28;20062;-33
2022/03/26 00:10:37;;;;;;;16.70;8.60;;;3.00;99.90;;;;;;5059475;28;20822;-33
2022/03/26 00:13:03;;;;;;;22.67;9.50;;;3.10;99.90;;;;;;5060533;28;20214;-33
2022/03/26 00:15:29;;;;;;;21.60;10.65;;;3.00;99.00;;;;;;5057189;28;20107;-34
2022/03/26 00:17:55;;;;;;;16.40;8.77;;;3.00;99.00;;;;;;5061640;28;20111;-34
2022/03/26 00:20:21;;;;;;;18.58;9.35;;;3.00;99.00;;;;;;5056750;28;20037;-32
2022/03/26 00:22:47;;;;;;;16.45;8.88;;;3.10;98.80;;;;;;5059795;28;20089;-33
2022/03/26 00:25:15;;;;;;;20.17;9.30;;;3.10;98.70;;;;;;5063555;28;20517;-33
2022/03/26 00:27:41;;;;;;;18.98;10.68;;;3.00;99.60;;;;;;5056867;28;20082;-35
2022/03/26 00:30:07;;;;;;;15.88;8.85;;;3.00;99.40;;;;;;5054748;28;20119;-33
2022/03/26 00:32:33;;;;;;;20.45;9.25;;;3.00;98.50;;;;;;5054362;28;20033;-32
2022/03/26 00:35:00;;;;;;;17.35;9.70;;;3.00;97.80;;;;;;5064807;28;20058;-33
2022/03/26 00:37:26;;;;;;;16.27;9.25;;;2.90;98.10;;;;;;5053179;28;20016;-35
2022/03/26 00:39:52;;;;;;;19.48;10.40;;;2.90;97.70;;;;;;5058611;28;20378;-33
2022/03/26 00:42:18;;;;;;;19.17;10.15;;;2.90;96.50;;;;;;5055955;28;20081;-33
2022/03/26 00:44:44;;;;;;;20.58;9.85;;;3.00;96.40;;;;;;5056973;28;20040;-32
2022/03/26 00:47:09;;;;;;;22.17;10.07;;;2.90;96.40;;;;;;5072316;28;20845;-34
2022/03/26 00:49:36;;;;;;;19.98;10.02;;;2.80;99.90;;;;;;5055004;28;20677;-34
2022/03/26 00:52:03;;;;;;;22.75;9.85;;;2.70;99.90;;;;;;5054629;28;20114;-33
2022/03/26 00:54:30;;;;;;;21.73;10.70;;;2.70;98.90;;;;;;5056375;28;20028;-33
2022/03/26 00:56:57;;;;;;;22.43;10.27;;;2.70;98.10;;;;;;5055052;28;20055;-33
2022/03/26 00:59:23;;;;;;;18.27;10.98;;;2.50;98.10;;;;;;5059640;28;20024;-34
2022/03/26 01:01:49;;;;;;;19.63;9.13;;;2.40;99.20;;;;;;5059207;28;20505;-33
2022/03/26 01:04:14;;;;;;;20.50;10.60;;;2.40;99.50;;;;;;5068050;28;20029;-33
2022/03/26 01:06:40;;;;;;;23.30;11.77;;;2.30;99.90;;;;;;5058897;28;20029;-33
2022/03/26 01:09:07;;;;;;;18.48;10.57;;;2.30;99.70;;;;;;5060468;28;20114;-33
2022/03/26 01:11:33;;;;;;;20.58;10.40;;;2.40;99.50;;;;;;5056148;28;20464;-33
2022/03/26 01:13:58;;;;;;;20.63;10.75;;;2.50;99.00;;;;;;5059863;28;20025;-32
2022/03/26 01:16:25;;;;;;;19.33;10.27;;;2.50;99.80;;;;;;5060797;28;21591;-33
2022/03/26 01:18:51;;;;;;;18.48;8.45;;;2.40;98.90;;;;;;5057553;28;21161;-33
2022/03/26 01:21:19;;;;;;;21.58;11.80;;;2.40;99.40;;;;;;5054759;28;20081;-32
2022/03/26 01:23:48;;;;;;;19.58;10.18;;;2.30;99.90;;;;;;5057795;28;20081;-32
2022/03/26 01:26:14;;;;;;;;;;;1.80;99.90;;;;;;5057487;28;20430;-33
2022/03/26 01:28:40;;;;;;;14.10;9.00;;;1.40;99.90;;;;;;5060667;28;20388;-32
2022/03/26 01:31:06;;;;;;;19.40;9.48;;;1.50;99.90;;;;;;5057462;28;20074;-33
2022/03/26 01:33:31;;;;;;;20.45;9.63;;;1.70;99.90;;;;;;5055565;28;20082;-32
2022/03/26 01:35:57;;;;;;;21.58;10.73;;;1.70;99.90;;;;;;5057488;28;20045;-33
2022/03/26 01:38:23;;;;;;;21.17;10.40;;;1.80;99.90;;;;;;5059818;28;20036;-32
2022/03/26 01:40:49;;;;;;;22.27;11.32;;;1.70;99.90;;;;;;5056489;28;20024;-32
2022/03/26 01:43:15;;;;;;;17.13;10.05;;;1.60;99.90;;;;;;5058858;28;20123;-32
2022/03/26 01:45:40;;;;;;;24.45;10.55;;;1.70;99.90;;;;;;5060349;28;20165;-33
2022/03/26 01:48:06;;;;;;;21.75;11.73;;;1.60;99.90;;;;;;5054522;28;20473;-33
2022/03/26 01:50:32;;;;;;;23.75;11.32;;;1.70;99.90;;;;;;5061982;28;20033;-32
2022/03/26 01:52:59;;;;;;;29.10;11.40;;;1.70;99.90;;;;;;5055692;28;20040;-35
2022/03/26 01:55:26;;;;;;;23.20;10.30;;;1.70;99.90;;;;;;5056660;28;20036;-32
2022/03/26 01:57:53;;;;;;;25.02;11.68;;;1.50;99.90;;;;;;5055938;28;20762;-34
2022/03/26 02:00:19;;;;;;;27.23;11.43;;;1.30;99.90;;;;;;5050649;28;20136;-36
2022/03/26 02:02:45;;;;;;;23.55;10.93;;;1.20;99.90;;;;;;5066410;28;20043;-38
2022/03/26 02:05:16;;;;;;;20.45;10.52;;;1.50;99.90;;;;;;5062846;28;20103;-37
2022/03/26 02:07:44;;;;;;;22.25;12.15;;;1.50;99.90;;;;;;5059304;28;20414;-36
2022/03/26 02:10:16;;;;;;;20.05;10.98;;;1.60;99.90;;;;;;5102361;22;20050;-78
2022/03/26 02:12:42;;;;;;;19.85;10.57;;;1.70;99.90;;;;;;4972608;28;20049;-78
2022/03/26 02:15:09;;;;;;;18.65;10.00;;;1.70;99.90;;;;;;4976691;28;20785;-78
2022/03/26 02:17:36;;;;;;;15.70;9.95;;;1.70;99.90;;;;;;4977442;28;20034;-78
2022/03/26 02:20:05;;;;;;;20.17;10.80;;;1.80;99.90;;;;;;4974402;28;20034;-78
2022/03/26 02:22:31;;;;;;;25.38;11.07;;;1.60;99.90;;;;;;4974809;28;20098;-79
2022/03/26 02:24:57;;;;;;;22.70;11.23;;;1.30;99.90;;;;;;4981982;28;20038;-78
2022/03/26 02:27:25;;;;;;;21.13;9.85;;;1.20;99.90;;;;;;4983048;28;21301;-79
2022/03/26 02:29:51;;;;;;;15.05;9.18;;;1.30;99.90;;;;;;4985264;28;20053;-78
2022/03/26 02:32:25;;;;;;;24.83;11.48;;;1.20;99.90;;;;;;4980647;28;20093;-78
2022/03/26 02:34:51;;;;;;;22.95;10.68;;;1.10;99.90;;;;;;4980543;28;20161;-78
2022/03/26 02:37:17;;;;;;;22.17;12.80;;;1.10;99.90;;;;;;4984453;28;20030;-78
2022/03/26 02:39:44;;;;;;;22.98;12.23;;;1.20;99.90;;;;;;4983299;28;20050;-78
2022/03/26 02:42:12;;;;;;;18.83;9.95;;;1.20;99.90;;;;;;4982066;28;20041;-78
2022/03/26 02:44:38;;;;;;;18.38;9.52;;;1.20;99.90;;;;;;4983283;28;20092;-78
2022/03/26 02:47:04;;;;;;;21.33;10.73;;;1.20;99.90;;;;;;4983177;28;20038;-78
2022/03/26 02:49:30;;;;;;;19.23;9.90;;;1.30;99.90;;;;;;4984131;28;20034;-78
2022/03/26 02:51:55;;;;;;;20.88;11.02;;;1.30;99.90;;;;;;4982930;28;20488;-78
2022/03/26 02:54:21;;;;;;;18.88;10.40;;;1.30;99.90;;;;;;4982609;28;20034;-78
2022/03/26 02:56:50;;;;;;;22.52;11.07;;;1.40;99.90;;;;;;4984448;28;20042;-78
2022/03/26 02:59:17;;;;;;;17.08;9.98;;;1.40;99.90;;;;;;4981440;28;20030;-77
2022/03/26 03:01:43;;;;;;;23.45;10.05;;;1.30;99.90;;;;;;4981207;28;20050;-78
2022/03/26 03:04:09;;;;;;;17.35;9.32;;;1.30;99.90;;;;;;4978845;28;20523;-77
2022/03/26 03:06:35;;;;;;;17.90;10.25;;;1.40;99.90;;;;;;4958901;28;20062;-78
2022/03/26 03:09:03;;;;;;;21.15;10.27;;;1.30;99.90;;;;;;4984386;28;20042;-78
2022/03/26 03:11:29;;;;;;;20.08;11.25;;;1.20;99.90;;;;;;4980529;28;20777;-78
2022/03/26 03:13:55;;;;;;;21.50;11.52;;;1.30;99.90;;;;;;4961962;28;20041;-78
2022/03/26 03:16:21;;;;;;;14.23;7.70;;;1.30;99.90;;;;;;4982436;28;20022;-79
2022/03/26 03:18:47;;;;;;;19.92;10.23;;;1.20;99.90;;;;;;4980778;28;20060;-78
2022/03/26 03:21:12;;;;;;;19.60;9.40;;;1.10;99.90;;;;;;4977863;28;20956;-78
2022/03/26 03:23:38;;;;;;;19.00;9.65;;;1.10;99.90;;;;;;4980808;28;20038;-78
2022/03/26 03:26:03;;;;;;;18.88;9.50;;;1.10;99.90;;;;;;4977840;28;20042;-78
2022/03/26 03:28:29;;;;;;;17.55;9.90;;;1.10;99.90;;;;;;4981026;28;20465;-78
2022/03/26 03:30:55;;;;;;;15.63;8.88;;;1.20;99.90;;;;;;4978934;28;20042;-78
2022/03/26 03:33:21;;;;;;;15.68;6.93;;;1.20;99.90;;;;;;4980706;28;20069;-77
2022/03/26 03:35:46;;;;;;;8.70;5.47;;;1.00;99.90;;;;;;4975438;28;20042;-79
2022/03/26 03:38:12;;;;;;;15.27;7.32;;;0.60;99.90;;;;;;4977971;28;21833;-78
2022/03/26 03:40:37;;;;;;;21.35;9.45;;;0.40;99.90;;;;;;4983600;28;20069;-78
2022/03/26 03:43:03;;;;;;;24.65;10.68;;;0.50;99.90;;;;;;4979220;28;20038;-78
2022/03/26 03:45:29;;;;;;;22.13;12.70;;;0.60;99.90;;;;;;4978183;28;20050;-78
2022/03/26 03:47:54;;;;;;;20.20;11.60;;;0.60;99.90;;;;;;4984368;28;20030;-78
2022/03/26 03:50:20;;;;;;;20.05;9.30;;;0.70;99.90;;;;;;4980480;28;20573;-78
2022/03/26 03:52:46;;;;;;;24.35;10.13;;;0.80;99.90;;;;;;4977218;28;20042;-77
2022/03/26 03:55:12;;;;;;;20.17;10.43;;;0.90;99.90;;;;;;4978150;28;20837;-78
2022/03/26 03:57:42;;;;;;;26.10;12.88;;;1.00;99.90;;;;;;4981820;28;20423;-78
2022/03/26 04:00:11;;;;;;;18.52;7.75;;;1.00;99.90;;;;;;4979242;28;20031;-78
2022/03/26 04:02:37;;;;;;;23.40;9.90;;;1.00;99.90;;;;;;4977705;28;20649;-78
2022/03/26 04:05:03;;;;;;;24.83;12.30;;;0.90;99.90;;;;;;4977386;28;20034;-77
2022/03/26 04:07:29;;;;;;;18.00;8.95;;;0.90;99.90;;;;;;4984257;28;20448;-78
2022/03/26 04:09:55;;;;;;;17.58;9.82;;;0.90;99.90;;;;;;4976504;28;20054;-77
2022/03/26 04:12:21;;;;;;;25.90;11.80;;;0.60;99.90;;;;;;4979086;28;20030;-78
2022/03/26 04:14:46;;;;;;;23.15;11.23;;;0.60;99.90;;;;;;4979007;28;20400;-78
2022/03/26 04:17:12;;;;;;;22.63;10.95;;;0.70;99.90;;;;;;4976522;28;20038;-78
2022/03/26 04:19:39;;;;;;;20.80;10.63;;;0.80;99.90;;;;;;4980463;28;20038;-77
2022/03/26 04:22:08;;;;;;;19.50;9.60;;;0.80;99.90;;;;;;4981283;28;20540;-78
2022/03/26 04:24:36;;;;;;;23.27;9.73;;;0.80;99.90;;;;;;4976429;28;20172;-78
2022/03/26 04:27:03;;;;;;;20.90;10.75;;;0.80;99.90;;;;;;4975072;28;20449;-78
2022/03/26 04:29:29;;;;;;;25.13;10.90;;;0.80;99.90;;;;;;4976894;28;21005;-78
2022/03/26 04:31:54;;;;;;;18.00;10.80;;;0.80;99.90;;;;;;4979552;28;20042;-78
2022/03/26 04:34:20;;;;;;;23.77;11.68;;;0.80;99.90;;;;;;4977502;28;20045;-78
2022/03/26 04:36:46;;;;;;;28.08;11.40;;;0.80;99.90;;;;;;4981426;28;20840;-78
2022/03/26 04:39:11;;;;;;;25.10;11.88;;;0.60;99.90;;;;;;4977364;28;20461;-78
2022/03/26 04:41:37;;;;;;;21.90;9.32;;;0.60;99.90;;;;;;4978196;28;20033;-78
2022/03/26 04:44:03;;;;;;;17.65;10.40;;;0.70;99.90;;;;;;4977918;28;21594;-78
2022/03/26 04:46:29;;;;;;;23.77;10.10;;;0.60;99.90;;;;;;4978085;28;20046;-78
2022/03/26 04:48:55;;;;;;;25.58;12.07;;;0.50;99.90;;;;;;4978720;28;20034;-78
2022/03/26 04:51:21;;;;;;;25.85;12.07;;;0.50;99.90;;;;;;4979185;28;20160;-78
2022/03/26 04:53:47;;;;;;;20.98;11.02;;;0.50;99.90;;;;;;4979516;28;20618;-78
2022/03/26 04:56:12;;;;;;;22.25;11.05;;;0.60;99.90;;;;;;4974290;28;20121;-78
2022/03/26 04:58:38;;;;;;;23.25;11.05;;;0.70;99.90;;;;;;4978350;28;20045;-78
2022/03/26 05:01:04;;;;;;;28.45;10.90;;;0.60;99.90;;;;;;4979532;28;20042;-78
2022/03/26 05:03:30;;;;;;;27.80;12.38;;;0.70;99.90;;;;;;4979702;28;20034;-78
2022/03/26 05:05:55;;;;;;;26.77;11.77;;;0.60;99.90;;;;;;4977445;28;20582;-78
2022/03/26 05:08:21;;;;;;;31.10;12.00;;;0.50;99.90;;;;;;4977039;28;20038;-77
2022/03/26 05:10:47;;;;;;;24.40;11.50;;;0.40;99.90;;;;;;4978586;28;20054;-78
2022/03/26 05:13:13;;;;;;;25.42;11.48;;;0.50;99.90;;;;;;4975722;28;20358;-78
2022/03/26 05:15:38;;;;;;;24.52;10.02;;;0.60;99.90;;;;;;4975603;28;20030;-78
2022/03/26 05:18:04;;;;;;;28.83;13.60;;;0.50;99.90;;;;;;4974400;28;20042;-77
2022/03/26 05:20:30;;;;;;;29.08;11.35;;;0.50;99.90;;;;;;4975506;28;20034;-78
2022/03/26 05:22:56;;;;;;;26.55;11.07;;;0.60;99.90;;;;;;4962650;28;20380;-78
2022/03/26 05:25:21;;;;;;;23.92;11.82;;;0.60;99.90;;;;;;4978746;28;20034;-78
2022/03/26 05:27:49;;;;;;;23.73;11.23;;;0.70;99.90;;;;;;4978375;28;20038;-78
2022/03/26 05:30:16;;;;;;;32.20;12.48;;;0.70;99.90;;;;;;4975845;28;20117;-78
2022/03/26 05:32:42;;;;;;;18.50;9.55;;;0.70;99.90;;;;;;4979854;28;20038;-78
2022/03/26 05:35:13;;;;;;;22.08;10.40;;;0.70;99.90;;;;;;4976113;28;20034;-78
2022/03/26 05:37:43;;;;;;;28.17;13.30;;;0.70;99.90;;;;;;4980752;28;20057;-78
2022/03/26 05:40:11;;;;;;;24.33;11.25;;;0.70;99.90;;;;;;4983215;28;20026;-78
2022/03/26 05:42:37;;;;;;;25.02;11.43;;;0.80;99.90;;;;;;4976751;28;20085;-78
2022/03/26 05:45:07;;;;;;;24.48;11.88;;;0.70;99.90;;;;;;4977406;28;20775;-78
2022/03/26 05:47:35;;;;;;;23.27;10.15;;;0.60;99.90;;;;;;4976958;28;20125;-78
2022/03/26 05:50:02;;;;;;;26.13;11.18;;;0.60;99.90;;;;;;4980824;28;20030;-78
2022/03/26 05:52:28;;;;;;;31.23;12.85;;;0.60;99.90;;;;;;4979838;28;20041;-79
2022/03/26 05:54:53;;;;;;;27.02;11.38;;;0.70;99.90;;;;;;4976225;28;20377;-78
2022/03/26 05:57:19;;;;;;;22.88;10.77;;;0.80;99.90;;;;;;4979534;28;20205;-78
2022/03/26 05:59:45;;;;;;;24.83;11.43;;;0.80;99.90;;;;;;4966106;28;20423;-79
2022/03/26 06:02:13;;;;;;;24.20;11.40;;;0.90;99.90;;;;;;4981226;28;20050;-78
2022/03/26 06:04:42;;;;;;;18.67;9.13;;;0.90;99.90;;;;;;4983226;28;21395;-78
2022/03/26 06:07:08;;;;;;;14.18;7.63;;;0.70;99.90;;;;;;4981017;28;20281;-78
2022/03/26 06:09:35;;;;;;;22.00;8.90;;;0.50;99.90;;;;;;4984249;28;20039;-78
2022/03/26 06:12:01;;;;;;;20.98;9.63;;;0.40;99.90;;;;;;4980876;28;20031;-79
2022/03/26 06:14:27;;;;;;;27.90;11.07;;;0.50;99.90;;;;;;4981029;28;20042;-78
2022/03/26 06:16:52;;;;;;;25.23;9.77;;;0.50;99.90;;;;;;4981581;28;20545;-78
2022/03/26 06:19:18;;;;;;;21.13;11.10;;;0.60;99.90;;;;;;4981689;28;20034;-78
2022/03/26 06:21:44;;;;;;;22.05;8.43;;;0.70;99.90;;;;;;4984454;28;20038;-77
2022/03/26 06:24:09;;;;;;;16.33;8.73;;;0.80;99.90;;;;;;4985810;28;20093;-78
2022/03/26 06:26:37;;;;;;;19.67;10.57;;;0.60;99.90;;;;;;4986822;28;20057;-78
2022/03/26 06:29:03;;;;;;;27.85;12.80;;;0.60;99.90;;;;;;4982681;28;20465;-78
2022/03/26 06:31:29;;;;;;;26.20;10.95;;;0.70;99.90;;;;;;4983237;28;20973;-78
2022/03/26 06:33:55;;;;;;;26.13;10.73;;;0.90;99.90;;;;;;4982634;28;20126;-78
2022/03/26 06:36:21;;;;;;;29.40;11.73;;;1.10;99.90;;;;;;4980882;28;20125;-78
2022/03/26 06:38:48;;;;;;;28.70;12.27;;;1.30;99.90;;;;;;4983432;28;20173;-78
2022/03/26 06:41:14;;;;;;;24.20;11.43;;;1.40;99.90;;;;;;4982987;28;20122;-77
2022/03/26 06:43:41;;;;;;;26.30;11.27;;;1.50;99.90;;;;;;4966264;28;20029;-77
2022/03/26 06:46:07;;;;;;;29.83;12.70;;;1.70;99.90;;;;;;4982376;28;20117;-78
2022/03/26 06:48:34;;;;;;;29.15;13.70;;;1.90;99.90;;;;;;4982186;28;20035;-78
2022/03/26 06:51:01;;;;;;;26.70;12.88;;;2.10;99.90;;;;;;4983633;28;20462;-78
2022/03/26 06:53:28;;;;;;;33.40;13.15;;;2.30;99.90;;;;;;4985083;28;20626;-78
2022/03/26 06:55:53;;;;;;;32.40;14.57;;;2.40;99.90;;;;;;4982098;28;20041;-78
2022/03/26 06:58:19;;;;;;;23.05;12.00;;;2.50;99.90;;;;;;4980947;28;20030;-78
2022/03/26 07:00:44;;;;;;;29.20;13.70;;;2.70;99.90;;;;;;4980573;28;20080;-78
2022/03/26 07:03:10;;;;;;;28.63;13.38;;;3.00;99.90;;;;;;4979356;28;20030;-78
2022/03/26 07:05:37;;;;;;;34.85;14.93;;;3.20;99.90;;;;;;4982507;28;20066;-79
2022/03/26 07:08:03;;;;;;;30.02;13.10;;;3.50;99.90;;;;;;4986632;28;20122;-79
2022/03/26 07:10:29;;;;;;;35.05;14.85;;;3.80;99.90;;;;;;4979898;28;20449;-78
2022/03/26 07:12:54;;;;;;;33.83;14.57;;;4.20;99.90;;;;;;4981742;28;20030;-78
2022/03/26 07:15:20;;;;;;;34.35;13.65;;;4.70;99.90;;;;;;4982939;28;20069;-79
2022/03/26 07:17:46;;;;;;;28.23;12.48;;;5.00;99.90;;;;;;4979866;28;20043;-78
2022/03/26 07:20:14;;;;;;;30.98;13.52;;;5.30;99.90;;;;;;4985709;28;20049;-79
2022/03/26 07:22:40;;;;;;;30.98;14.10;;;5.50;99.90;;;;;;4980893;28;20018;-78
2022/03/26 07:25:07;;;;;;;28.48;13.35;;;5.80;99.90;;;;;;4979364;28;20470;-79
2022/03/26 07:27:34;;;;;;;31.40;13.65;;;6.00;99.90;;;;;;4982396;28;20580;-80
2022/03/26 07:30:00;;;;;;;29.08;14.30;;;6.20;99.90;;;;;;4983136;28;20374;-80
2022/03/26 07:32:27;;;;;;;34.10;13.88;;;6.20;99.90;;;;;;4979269;28;20038;-79
2022/03/26 07:34:53;;;;;;;31.30;14.32;;;6.50;99.90;;;;;;4984500;28;20038;-79
2022/03/26 07:37:19;;;;;;;34.53;14.63;;;6.60;99.90;;;;;;4977190;28;20035;-79
2022/03/26 07:39:45;;;;;;;29.08;13.60;;;6.80;99.90;;;;;;4979267;28;20045;-79
2022/03/26 07:42:11;;;;;;;31.98;14.25;;;6.90;99.90;;;;;;4978442;28;20057;-79
2022/03/26 07:44:36;;;;;;;29.52;13.20;;;7.10;99.90;;;;;;4978334;28;20038;-78
2022/03/26 07:47:03;;;;;;;27.08;13.38;;;7.30;99.90;;;;;;4982506;28;20482;-79
2022/03/26 07:49:28;;;;;;;32.58;14.32;;;7.50;98.50;;;;;;4978018;28;20049;-79
2022/03/26 07:51:54;;;;;;;25.15;12.55;;;7.70;96.20;;;;;;4981344;28;20466;-79
2022/03/26 07:54:20;;;;;;;31.90;13.27;;;7.90;96.10;;;;;;4977398;28;20049;-79
2022/03/26 07:56:45;;;;;;;32.38;13.10;;;8.00;95.80;;;;;;4981610;28;20113;-79
2022/03/26 07:59:11;;;;;;;34.15;13.32;;;8.20;93.20;;;;;;4982374;28;20041;-79
2022/03/26 08:01:37;;;;;;;26.38;13.15;;;8.30;94.20;;;;;;4981376;28;20163;-79
2022/03/26 08:04:02;;;;;;;35.50;14.95;;;8.60;92.50;;;;;;4985264;28;20037;-80
2022/03/26 08:06:28;;;;;;;29.20;14.05;;;8.70;95.00;;;;;;4978941;28;20029;-80
2022/03/26 08:08:53;;;;;;;31.17;14.13;;;9.00;94.10;;;;;;4985547;28;20037;-79
2022/03/26 08:11:19;;;;;;;29.67;13.75;;;9.20;92.40;;;;;;4981583;28;20507;-80
2022/03/26 08:13:45;;;;;;;36.85;14.23;;;9.50;82.30;;;;;;4981285;28;21772;-79
2022/03/26 08:16:10;;;;;;;37.90;16.23;;;9.70;68.80;;;;;;4978873;28;20030;-79
2022/03/26 08:18:36;;;;;;;32.38;14.20;;;9.80;74.40;;;;;;4986154;28;20042;-80
2022/03/26 08:21:03;;;;;;;32.00;13.90;;;9.90;69.40;;;;;;4980263;28;20039;-80
2022/03/26 08:23:29;;;;;;;41.95;13.50;;;10.10;72.00;;;;;;4980899;28;20462;-80
2022/03/26 08:28:39;;;;;;;40.20;15.10;;;10.20;67.40;;;;;;4979266;28;20045;-80
2022/03/26 08:31:10;;;;;;;33.70;15.13;;;10.40;62.20;;;;;;4980038;28;20034;-80
2022/03/26 08:33:36;;;;;;;33.72;15.18;;;10.30;60.00;;;;;;4980855;28;20030;-80
2022/03/26 08:36:02;;;;;;;36.17;16.35;;;10.50;56.40;;;;;;4986612;28;22385;-80
2022/03/26 08:38:28;;;;;;;36.92;16.50;;;10.50;57.80;;;;;;4979752;28;20501;-80
2022/03/26 08:40:54;;;;;;;38.28;15.98;;;10.70;56.70;;;;;;4977785;28;20061;-80
2022/03/26 08:43:20;;;;;;;39.13;15.75;;;10.80;65.00;;;;;;4978414;28;20056;-79
2022/03/26 08:45:46;;;;;;;38.40;15.07;;;11.00;58.80;;;;;;4978993;28;20164;-79
2022/03/26 08:48:11;;;;;;;36.47;14.65;;;11.00;58.60;;;;;;4979381;28;20030;-80
2022/03/26 08:50:37;;;;;;;38.45;15.75;;;11.00;58.60;;;;;;4983867;28;20034;-79
2022/03/26 08:53:03;;;;;;;36.13;14.38;;;11.20;59.10;;;;;;4984216;28;20026;-81
2022/03/26 08:55:28;;;;;;;35.13;13.73;;;11.40;54.70;;;;;;4987750;28;20704;-81
2022/03/26 08:57:54;;;;;;;31.45;13.48;;;11.40;55.20;;;;;;4985818;28;20045;-81
2022/03/26 09:00:20;;;;;;;31.38;13.85;;;11.50;55.40;;;;;;4985335;28;20030;-81
2022/03/26 09:02:46;;;;;;;38.17;16.08;;;11.60;54.70;;;;;;4983304;28;20069;-81
2022/03/26 09:05:15;;;;;;;35.70;14.15;;;11.60;54.20;;;;;;4982466;28;20073;-81
2022/03/26 09:07:41;;;;;;;31.20;12.93;;;11.70;57.40;;;;;;4986774;28;20034;-81
2022/03/26 09:10:08;;;;;;;36.35;13.38;;;11.60;52.60;;;;;;4985641;28;20054;-81
2022/03/26 09:12:34;;;;;;;32.47;14.65;;;11.70;55.70;;;;;;4984059;28;20489;-81
2022/03/26 09:15:00;;;;;;;31.77;13.32;;;11.70;56.80;;;;;;4983641;28;20042;-81
2022/03/26 09:17:26;;;;;;;31.02;14.07;;;11.80;56.20;;;;;;4988082;28;20038;-82
2022/03/26 09:19:52;;;;;;;36.35;15.10;;;11.70;50.60;;;;;;4986294;28;20050;-82
2022/03/26 09:22:17;;;;;;;24.67;10.90;;;11.90;54.90;;;;;;4988244;28;20038;-82
2022/03/26 09:24:43;;;;;;;32.42;13.82;;;12.00;56.90;;;;;;4988881;28;20108;-82
2022/03/26 09:27:11;;;;;;;29.05;14.18;;;12.00;54.10;;;;;;4984761;28;20034;-83
2022/03/26 09:29:37;;;;;;;31.42;14.65;;;12.20;57.80;;;;;;4984798;28;20077;-82
2022/03/26 09:32:03;;;;;;;38.40;13.80;;;12.40;56.00;;;;;;4985745;28;20046;-83
2022/03/26 09:34:29;;;;;;;30.75;13.57;;;12.30;54.00;;;;;;4984765;28;20042;-83
2022/03/26 09:36:55;;;;;;;31.33;13.23;;;12.50;54.80;;;;;;4983525;28;20867;-83
2022/03/26 09:39:21;;;;;;;31.45;13.55;;;12.40;55.00;;;;;;4985209;28;20116;-83
2022/03/26 09:41:47;;;;;;;33.95;15.27;;;12.50;51.40;;;;;;4982436;28;20038;-83
2022/03/26 09:44:13;;;;;;;33.47;14.20;;;12.70;50.70;;;;;;4985141;28;20610;-82
2022/03/26 09:46:40;;;;;;;33.22;13.68;;;12.70;55.40;;;;;;4981548;28;20031;-82
2022/03/26 09:49:06;;;;;;;34.53;14.52;;;12.70;51.40;;;;;;4980610;28;20477;-83
2022/03/26 09:51:33;;;;;;;31.20;13.80;;;12.80;51.10;;;;;;4982899;28;20104;-84
2022/03/26 09:53:58;;;;;;;33.58;14.00;;;12.90;55.90;;;;;;4981738;28;20030;-82
2022/03/26 09:56:25;;;;;;;33.13;16.08;;;13.10;52.20;;;;;;4982740;28;20054;-82
2022/03/26 09:58:52;;;;;;;36.95;14.20;;;13.10;49.40;;;;;;4978692;28;20039;-82
2022/03/26 10:01:22;;;;;;;29.33;14.20;;;13.10;51.10;;;;;;4982825;28;20066;-82
2022/03/26 10:04:10;;;;;;;37.08;15.32;;;13.00;49.50;;;;;;4982023;28;20026;-80
2022/03/26 10:06:36;;;;;;;;;;;13.10;52.10;;;;;;4981242;28;20045;-80
2022/03/26 10:09:02;;;;;;;33.63;13.73;;;13.50;54.00;;;;;;4959610;28;19918;-80
2022/03/26 10:11:33;;;;;;;38.88;15.57;;;13.50;47.20;;;;;;4981312;28;20085;-80
2022/03/26 10:13:59;;;;;;;32.97;13.90;;;13.40;46.90;;;;;;4986389;28;20038;-80
2022/03/26 10:16:25;;;;;;;28.23;13.68;;;13.40;48.30;;;;;;4981489;28;20121;-81
2022/03/26 10:18:51;;;;;;;29.20;13.13;;;13.80;55.60;;;;;;4979081;28;20097;-81
2022/03/26 10:21:22;;;;;;;27.80;13.25;;;13.80;49.60;;;;;;4980575;28;20062;-80
2022/03/26 10:23:52;;;;;;;34.97;14.77;;;13.80;49.80;;;;;;4965663;28;20041;-80
2022/03/26 10:26:23;;;;;;;26.90;12.80;;;13.80;53.30;;;;;;4977245;28;20129;-80
2022/03/26 10:28:57;;;;;;;37.92;15.55;;;13.90;51.80;;;;;;4983761;28;20038;-80
2022/03/26 10:34:14;;;;;;;36.25;14.38;;;14.10;50.50;;;;;;4981099;28;20062;-79
2022/03/26 10:36:45;;;;;;;29.95;13.77;;;14.20;48.60;;;;;;4964373;28;20070;-78
2022/03/26 10:39:21;;;;;;;35.05;15.73;;;14.40;47.60;;;;;;4960945;28;20104;-79
2022/03/26 10:41:48;;;;;;;30.58;12.82;;;14.30;47.90;;;;;;4980116;28;20035;-79
2022/03/26 10:44:16;;;;;;;32.33;14.38;;;14.50;45.50;;;;;;4981116;28;20525;-79
2022/03/26 10:46:46;;;;;;;35.60;16.02;;;14.60;45.30;;;;;;4990017;28;20066;-79
2022/03/26 10:49:13;;;;;;;34.13;14.23;;;14.50;44.20;;;;;;4982339;28;20392;-79
2022/03/26 10:51:41;;;;;;;38.75;15.70;;;14.80;49.90;;;;;;4986210;28;20044;-79
2022/03/26 10:54:13;;;;;;;33.38;15.10;;;14.80;45.70;;;;;;4983682;28;20477;-79
2022/03/26 10:56:40;;;;;;;34.22;14.85;;;14.80;45.60;;;;;;4985545;28;20036;-80
2022/03/26 10:59:06;;;;;;;36.83;15.40;;;14.90;45.30;;;;;;4989522;28;20046;-79
2022/03/26 11:01:32;;;;;;;34.97;14.88;;;14.90;42.60;;;;;;4987169;28;20062;-80
2022/03/26 11:03:58;;;;;;;33.75;14.63;;;15.10;44.70;;;;;;4987026;28;20126;-79
2022/03/26 11:06:27;;;;;;;32.30;14.55;;;15.10;45.20;;;;;;4985555;28;20196;-79
2022/03/26 11:09:01;;;;;;;37.40;15.00;;;15.40;43.70;;;;;;4985193;28;20038;-81
2022/03/26 11:11:28;;;;;;;38.17;15.30;;;15.50;43.90;;;;;;4986223;28;20492;-81
2022/03/26 11:14:15;;;;;;;23.92;12.40;;;15.50;42.30;;;;;;4987436;28;20109;-81
2022/03/26 11:16:40;;;;;;;36.25;15.05;;;15.30;41.30;;;;;;4976123;28;20054;-81
2022/03/26 11:19:34;;;;;;;29.95;14.38;;;15.50;41.80;;;;;;4985854;28;20453;-81
2022/03/26 11:22:32;;;;;;;27.02;12.27;;;15.60;40.10;;;;;;4984852;28;20023;-86
2022/03/26 11:25:29;;;;;;;28.80;12.20;;;15.80;40.30;;;;;;4956874;28;20070;-86
2022/03/26 11:28:15;;;;;;;30.38;13.55;;;15.70;38.70;;;;;;4989883;28;20148;-86
2022/03/26 11:31:01;;;;;;;33.97;15.82;;;15.90;40.40;;;;;;4987841;28;20381;-86
2022/03/26 11:33:34;;;;;;;31.17;13.38;;;15.90;41.30;;;;;;4984713;28;20023;-87
2022/03/26 11:36:02;;;;;;;29.95;14.43;;;15.80;37.80;;;;;;4990354;28;20034;-86
2022/03/26 11:38:30;;;;;;;30.13;13.43;;;15.60;36.60;;;;;;4987254;28;20039;-86
2022/03/26 11:41:03;;;;;;;24.67;11.50;;;15.90;38.70;;;;;;4968236;28;20292;-83
2022/03/26 11:43:44;;;;;;;34.60;14.93;;;16.00;38.50;;;;;;4987672;28;20943;-85
2022/03/26 11:52:18;;;;;;;31.55;15.20;;;15.80;37.40;;;;;;4986992;28;20401;-85
2022/03/26 11:54:45;;;;;;;31.88;14.50;;;15.70;37.20;;;;;;4989829;28;20098;-84
2022/03/26 11:57:22;;;;;;;26.50;12.57;;;15.70;38.80;;;;;;4971823;28;20031;-85
2022/03/26 11:59:49;;;;;;;27.88;13.52;;;16.10;39.70;;;;;;4988991;28;20038;-85
2022/03/26 12:02:35;;;;;;;31.08;14.10;;;16.10;39.10;;;;;;4985142;28;20045;-84
2022/03/26 12:08:08;;;;;;;30.42;14.93;;;16.10;38.70;;;;;;4987780;28;20077;-84
2022/03/26 12:10:34;;;;;;;32.72;14.85;;;16.20;36.30;;;;;;4994815;28;20046;-85
2022/03/26 12:13:01;;;;;;;29.63;14.48;;;16.00;37.40;;;;;;4990982;28;20089;-84
2022/03/26 12:15:30;;;;;;;33.53;14.23;;;16.10;38.90;;;;;;4986194;28;20030;-84
2022/03/26 12:18:10;;;;;;;29.60;14.77;;;16.30;39.70;;;;;;4988881;28;20389;-84
2022/03/26 12:20:45;;;;;;;32.13;14.25;;;16.50;35.10;;;;;;4986197;28;20041;-84
2022/03/26 12:23:11;;;;;;;32.40;14.57;;;16.30;35.10;;;;;;4984234;28;20505;-84
2022/03/26 12:26:00;;;;;;;29.90;14.00;;;16.30;39.20;;;;;;4986275;28;20023;-85
2022/03/26 12:28:26;;;;;;;21.88;11.73;;;16.50;36.40;;;;;;4980719;28;22300;-84
2022/03/26 12:30:54;;;;;;;25.02;11.75;;;16.60;34.70;;;;;;4988203;28;20065;-84
2022/03/26 12:33:21;;;;;;;29.83;13.55;;;16.50;34.50;;;;;;4987261;28;20025;-84
2022/03/26 12:35:49;;;;;;;31.43;14.03;;;16.50;36.80;;;;;;4986682;28;20412;-84
2022/03/26 12:38:15;;;;;;;32.10;14.95;;;16.40;35.90;;;;;;4988168;28;20281;-84
2022/03/26 12:40:58;;;;;;;38.85;14.65;;;16.60;36.60;;;;;;4987334;28;20378;-84
2022/03/26 12:43:24;;;;;;;36.60;14.15;;;16.50;34.60;;;;;;4988680;28;20044;-84
2022/03/26 12:45:52;;;;;;;32.83;15.10;;;16.70;38.60;;;;;;4985391;28;20182;-84
2022/03/26 12:48:22;;;;;;;32.42;14.30;;;16.80;35.30;;;;;;4986013;28;20121;-84
2022/03/26 12:50:48;;;;;;;33.63;13.75;;;16.60;32.70;;;;;;4986221;28;20038;-84